createdAt,value
2022-12-26T00:01:23.554Z,18.35
2022-12-26T00:03:52.466Z,17.65
2022-12-26T00:06:25.462Z,17.02
2022-12-26T00:08:54.096Z,17.95
2022-12-26T00:11:23.849Z,19.05
2022-12-26T00:14:05.706Z,19.15
2022-12-26T00:16:34.347Z,19.48
2022-12-26T00:19:03.216Z,20.90
2022-12-26T00:21:31.514Z,20.45
2022-12-26T00:24:00.788Z,19.20
2022-12-26T00:26:34.286Z,18.27
2022-12-26T00:29:02.230Z,18.48
2022-12-26T00:31:33.149Z,19.15
2022-12-26T00:34:01.657Z,20.62
2022-12-26T00:36:33.072Z,19.67
2022-12-26T00:39:03.710Z,17.98
2022-12-26T00:41:32.459Z,17.05
2022-12-26T00:44:04.077Z,18.32
2022-12-26T00:46:33.883Z,17.07
2022-12-26T00:49:03.832Z,17.15
2022-12-26T00:51:33.574Z,18.27
2022-12-26T00:54:01.479Z,16.70
2022-12-26T00:56:30.105Z,17.02
2022-12-26T00:58:57.936Z,16.35
2022-12-26T01:01:32.444Z,16.93
2022-12-26T01:04:01.359Z,16.42
2022-12-26T01:06:30.851Z,15.72
2022-12-26T01:08:59.296Z,16.15
2022-12-26T01:11:39.713Z,15.80
2022-12-26T01:14:18.779Z,16.60
2022-12-26T01:16:49.238Z,16.25
2022-12-26T01:19:17.498Z,17.05
2022-12-26T01:21:45.812Z,15.90
2022-12-26T01:24:14.363Z,15.32
2022-12-26T01:26:42.090Z,16.23
2022-12-26T01:29:11.492Z,16.97
2022-12-26T01:31:39.387Z,15.55
2022-12-26T01:34:08.990Z,16.00
2022-12-26T01:36:39.835Z,16.00
2022-12-26T01:39:09.184Z,16.32
2022-12-26T01:41:37.625Z,16.70
2022-12-26T01:44:27.140Z,17.65
2022-12-26T01:46:54.936Z,18.65
2022-12-26T01:49:36.476Z,18.48
2022-12-26T01:52:08.923Z,19.23
2022-12-26T01:54:42.988Z,19.90
2022-12-26T01:57:18.997Z,20.52
2022-12-26T01:59:49.016Z,20.00
2022-12-26T02:02:21.073Z,20.95
2022-12-26T02:05:10.175Z,24.60
2022-12-26T02:07:45.033Z,24.63
2022-12-26T02:10:19.997Z,24.98
2022-12-26T02:12:49.904Z,24.05
2022-12-26T02:15:18.927Z,22.50
2022-12-26T02:17:50.337Z,19.50
2022-12-26T02:20:26.110Z,19.20
2022-12-26T02:23:22.359Z,16.42
2022-12-26T02:26:27.304Z,15.88
2022-12-26T02:29:35.603Z,16.02
2022-12-26T02:32:17.690Z,14.70
2022-12-26T02:34:59.816Z,15.35
2022-12-26T02:37:49.894Z,15.72
2022-12-26T02:40:45.673Z,17.25
2022-12-26T02:43:30.987Z,16.25
2022-12-26T02:46:50.326Z,20.05
2022-12-26T02:49:40.606Z,20.60
2022-12-26T02:52:35.364Z,17.20
2022-12-26T02:55:38.936Z,14.78
2022-12-26T02:58:36.697Z,16.37
2022-12-26T03:01:34.540Z,15.63
2022-12-26T03:04:24.694Z,19.27
2022-12-26T03:07:16.575Z,20.92
2022-12-26T03:10:05.321Z,25.65
2022-12-26T03:13:02.722Z,46.58
2022-12-26T03:15:36.597Z,35.23
2022-12-26T03:18:08.259Z,29.82
2022-12-26T03:20:38.309Z,26.80
2022-12-26T03:23:11.554Z,23.77
2022-12-26T03:26:21.284Z,17.45
2022-12-26T03:28:50.132Z,14.68
2022-12-26T03:31:18.058Z,11.97
2022-12-26T03:34:05.560Z,11.38
2022-12-26T03:36:58.064Z,11.93
2022-12-26T03:40:24.813Z,10.58
2022-12-26T03:43:37.880Z,9.40
2022-12-26T03:46:41.122Z,9.43
2022-12-26T03:49:46.477Z,8.78
2022-12-26T03:53:15.554Z,9.13
2022-12-26T03:56:28.091Z,13.03
2022-12-26T03:59:28.094Z,12.43
2022-12-26T04:02:18.700Z,12.65
2022-12-26T04:04:49.630Z,13.18
2022-12-26T04:07:56.581Z,13.68
2022-12-26T04:10:46.043Z,13.18
2022-12-26T04:13:40.437Z,13.35
2022-12-26T04:16:38.279Z,13.53
2022-12-26T04:19:36.087Z,16.52
2022-12-26T04:22:41.959Z,14.87
2022-12-26T04:25:50.177Z,14.13
2022-12-26T04:28:29.477Z,12.82
2022-12-26T04:31:21.280Z,12.45
2022-12-26T04:34:18.346Z,11.30
2022-12-26T04:37:12.732Z,11.12
2022-12-26T04:40:03.352Z,12.05
2022-12-26T04:42:51.390Z,13.22
2022-12-26T04:45:21.664Z,12.93
2022-12-26T04:48:10.883Z,12.07
2022-12-26T04:50:51.085Z,11.70
2022-12-26T04:53:20.224Z,11.85
2022-12-26T04:55:48.362Z,12.30
2022-12-26T04:58:17.356Z,13.25
2022-12-26T05:00:45.468Z,13.68
2022-12-26T05:03:32.876Z,12.47
2022-12-26T05:06:19.580Z,12.73
2022-12-26T05:09:06.079Z,13.30
2022-12-26T05:11:34.914Z,14.53
2022-12-26T05:14:02.812Z,13.45
2022-12-26T05:16:48.887Z,13.83
2022-12-26T05:22:23.846Z,12.50
2022-12-26T05:25:11.133Z,12.30
2022-12-26T05:28:01.746Z,11.25
2022-12-26T05:30:29.671Z,12.93
2022-12-26T05:33:15.957Z,12.33
2022-12-26T05:35:44.519Z,12.03
2022-12-26T05:38:12.348Z,11.80
2022-12-26T05:40:43.132Z,11.93
2022-12-26T05:43:11.095Z,11.95
2022-12-26T05:45:38.698Z,11.57
2022-12-26T05:48:06.403Z,11.28
2022-12-26T05:50:34.104Z,10.98
2022-12-26T05:53:03.426Z,10.70
2022-12-26T05:55:31.158Z,10.55
2022-12-26T05:58:02.798Z,9.95
2022-12-26T06:00:31.027Z,9.63
2022-12-26T06:03:00.438Z,10.25
2022-12-26T06:05:28.823Z,9.88
2022-12-26T06:07:57.091Z,10.95
2022-12-26T06:10:26.491Z,11.70
2022-12-26T06:12:57.521Z,12.28
2022-12-26T06:15:25.190Z,12.63
2022-12-26T06:17:56.161Z,14.15
2022-12-26T06:20:24.116Z,13.83
2022-12-26T06:22:52.048Z,13.45
2022-12-26T06:25:21.702Z,13.32
2022-12-26T06:27:49.549Z,15.15
2022-12-26T06:30:18.615Z,14.95
2022-12-26T06:32:49.574Z,14.87
2022-12-26T06:35:17.112Z,15.75
2022-12-26T06:37:44.793Z,17.05
2022-12-26T06:40:14.436Z,18.42
2022-12-26T06:42:42.227Z,20.65
2022-12-26T06:45:11.070Z,18.37
2022-12-26T06:47:40.845Z,25.65
2022-12-26T06:50:09.590Z,20.30
2022-12-26T06:52:37.940Z,20.25
2022-12-26T06:55:08.954Z,18.32
2022-12-26T06:57:38.495Z,17.32
2022-12-26T07:00:07.631Z,16.35
2022-12-26T07:02:35.844Z,16.05
2022-12-26T07:05:04.520Z,13.93
2022-12-26T07:07:32.453Z,13.78
2022-12-26T07:10:00.753Z,15.05
2022-12-26T07:12:28.549Z,14.55
2022-12-26T07:15:01.786Z,17.98
2022-12-26T07:17:29.770Z,16.30
2022-12-26T07:19:57.708Z,16.60
2022-12-26T07:22:25.353Z,15.98
2022-12-26T07:24:56.116Z,16.70
2022-12-26T07:27:24.697Z,16.70
2022-12-26T07:29:52.775Z,15.18
2022-12-26T07:32:20.499Z,15.55
2022-12-26T07:34:49.543Z,15.75
2022-12-26T07:37:16.831Z,19.60
2022-12-26T07:39:44.745Z,21.05
2022-12-26T07:42:12.756Z,20.05
2022-12-26T07:44:41.587Z,22.60
2022-12-26T07:47:09.339Z,21.35
2022-12-26T07:49:37.137Z,20.45
2022-12-26T07:52:05.235Z,20.45
2022-12-26T07:54:33.380Z,20.20
2022-12-26T07:57:29.832Z,21.40
2022-12-26T07:59:31.193Z,21.62
2022-12-26T08:01:59.496Z,21.17
2022-12-26T08:04:28.337Z,21.57
2022-12-26T08:06:56.257Z,21.05
2022-12-26T08:09:25.773Z,23.85
2022-12-26T08:11:53.478Z,21.17
2022-12-26T08:14:21.209Z,22.17
2022-12-26T08:16:53.258Z,21.73
2022-12-26T08:19:18.341Z,22.15
2022-12-26T08:21:45.851Z,22.05
2022-12-26T08:24:14.626Z,24.55
2022-12-26T08:26:42.619Z,25.40
2022-12-26T08:29:10.680Z,24.82
2022-12-26T08:31:39.280Z,26.45
2022-12-26T08:34:07.064Z,26.65
2022-12-26T08:36:36.242Z,27.15
2022-12-26T08:39:04.344Z,26.60
2022-12-26T08:41:32.009Z,26.62
2022-12-26T08:46:29.441Z,26.62
2022-12-26T08:48:57.595Z,25.40
2022-12-26T08:51:25.186Z,25.77
2022-12-26T08:53:54.929Z,27.35
2022-12-26T08:56:25.941Z,27.70
2022-12-26T08:58:53.886Z,29.12
2022-12-26T09:01:26.074Z,29.20
2022-12-26T09:03:56.736Z,27.22
2022-12-26T09:06:26.258Z,26.07
2022-12-26T09:08:55.441Z,24.07
2022-12-26T09:11:28.874Z,22.40
2022-12-26T09:14:00.140Z,22.85
2022-12-26T09:16:37.805Z,26.12
2022-12-26T09:19:03.049Z,26.27
2022-12-26T09:21:33.463Z,23.18
2022-12-26T09:24:05.325Z,20.97
2022-12-26T09:26:33.869Z,17.37
2022-12-26T09:29:02.058Z,16.90
2022-12-26T09:31:33.493Z,18.77
2022-12-26T09:34:05.574Z,19.62
2022-12-26T09:36:39.593Z,19.30
2022-12-26T09:39:08.861Z,18.65
2022-12-26T09:42:03.352Z,18.05
2022-12-26T09:44:59.349Z,16.95
2022-12-26T09:47:37.726Z,17.32
2022-12-26T09:50:25.676Z,18.40
2022-12-26T09:52:58.703Z,18.30
2022-12-26T09:55:52.169Z,17.27
2022-12-26T09:58:31.165Z,16.37
2022-12-26T10:01:07.667Z,14.65
2022-12-26T10:03:46.339Z,13.60
2022-12-26T10:06:22.075Z,14.80
2022-12-26T10:09:36.938Z,14.30
2022-12-26T10:12:46.741Z,14.20
2022-12-26T10:15:39.892Z,16.10
2022-12-26T10:18:16.243Z,16.73
2022-12-26T10:21:26.673Z,16.57
2022-12-26T10:24:03.219Z,16.05
2022-12-26T10:26:41.579Z,16.15
2022-12-26T10:29:23.929Z,16.20
2022-12-26T10:32:08.589Z,14.40
2022-12-26T10:34:44.018Z,12.37
2022-12-26T10:40:18.546Z,11.75
2022-12-26T10:42:53.483Z,11.85
2022-12-26T10:45:44.762Z,11.35
2022-12-26T10:48:17.123Z,12.40
2022-12-26T10:50:48.602Z,11.35
2022-12-26T10:53:19.331Z,12.68
2022-12-26T10:55:46.976Z,12.35
2022-12-26T10:58:34.092Z,13.95
2022-12-26T11:01:37.796Z,14.23
2022-12-26T11:04:18.799Z,13.00
2022-12-26T11:06:48.585Z,13.72
2022-12-26T11:09:40.063Z,13.28
2022-12-26T11:12:38.235Z,12.55
2022-12-26T11:15:30.156Z,11.30
2022-12-26T11:18:18.520Z,10.63
2022-12-26T11:20:48.389Z,10.30
2022-12-26T11:23:33.686Z,8.95
2022-12-26T11:26:02.249Z,13.32
2022-12-26T11:28:36.940Z,9.38
2022-12-26T11:31:09.844Z,8.50
2022-12-26T11:33:46.470Z,10.00
2022-12-26T11:36:19.093Z,8.98
2022-12-26T11:39:01.152Z,8.63
2022-12-26T11:41:38.598Z,8.38
2022-12-26T11:44:30.903Z,9.10
2022-12-26T11:47:13.207Z,9.20
2022-12-26T11:49:52.460Z,10.40
2022-12-26T11:52:59.434Z,9.35
2022-12-26T11:55:37.479Z,9.25
2022-12-26T11:58:13.868Z,9.95
2022-12-26T12:01:02.654Z,8.78
2022-12-26T12:03:49.648Z,10.35
2022-12-26T12:06:50.639Z,10.48
2022-12-26T12:09:43.719Z,11.03
2022-12-26T12:12:40.317Z,11.03
2022-12-26T12:18:14.296Z,11.78
2022-12-26T12:21:14.157Z,11.18
2022-12-26T12:23:49.994Z,9.73
2022-12-26T12:26:32.015Z,10.23
2022-12-26T12:29:17.091Z,11.78
2022-12-26T12:32:07.536Z,13.40
2022-12-26T12:35:03.718Z,13.35
2022-12-26T12:38:05.726Z,14.78
2022-12-26T12:41:04.359Z,12.47
2022-12-26T12:43:48.416Z,11.22
2022-12-26T12:46:48.960Z,10.35
2022-12-26T12:49:43.037Z,10.28
2022-12-26T12:52:19.579Z,8.75
2022-12-26T12:55:23.130Z,10.98
2022-12-26T12:58:13.086Z,11.95
2022-12-26T13:00:45.654Z,11.33
2022-12-26T13:03:21.321Z,11.70
2022-12-26T13:06:06.831Z,9.48
2022-12-26T13:08:46.028Z,10.30
2022-12-26T13:11:33.588Z,8.13
2022-12-26T13:14:12.429Z,7.83
2022-12-26T13:16:45.532Z,7.33
2022-12-26T13:19:38.400Z,8.23
2022-12-26T13:22:17.149Z,7.12
2022-12-26T13:24:49.543Z,8.20
2022-12-26T13:27:31.718Z,7.90
2022-12-26T13:29:59.671Z,9.23
2022-12-26T13:32:33.465Z,11.28
2022-12-26T13:35:03.933Z,12.53
2022-12-26T13:37:41.383Z,13.58
2022-12-26T13:40:21.576Z,15.13
2022-12-26T13:43:37.840Z,13.45
2022-12-26T13:46:26.552Z,12.63
2022-12-26T13:48:57.962Z,12.25
2022-12-26T13:51:44.975Z,12.33
2022-12-26T13:54:15.029Z,12.35
2022-12-26T13:56:51.114Z,13.05
2022-12-26T13:59:30.141Z,14.07
2022-12-26T14:02:25.030Z,13.72
2022-12-26T14:05:29.258Z,14.10
2022-12-26T14:08:30.281Z,15.35
2022-12-26T14:11:35.959Z,17.05
2022-12-26T14:14:27.382Z,19.20
2022-12-26T14:17:12.461Z,19.65
2022-12-26T14:20:08.594Z,18.02
2022-12-26T14:22:54.255Z,20.52
2022-12-26T14:25:33.681Z,18.82
2022-12-26T14:28:23.361Z,20.08
2022-12-26T14:31:08.563Z,20.17
2022-12-26T14:34:10.679Z,21.10
2022-12-26T14:37:01.296Z,17.92
2022-12-26T14:40:10.319Z,17.85
2022-12-26T14:43:13.561Z,19.07
2022-12-26T14:45:50.424Z,19.45
2022-12-26T14:48:29.919Z,20.82
2022-12-26T14:51:21.327Z,20.55
2022-12-26T14:54:26.675Z,23.15
2022-12-26T14:56:55.234Z,16.35
2022-12-26T14:59:32.904Z,14.90
2022-12-26T15:02:12.344Z,15.43
2022-12-26T15:04:48.823Z,16.05
2022-12-26T15:07:40.353Z,19.50
2022-12-26T15:10:25.678Z,20.62
2022-12-26T15:13:29.221Z,19.17
2022-12-26T15:16:48.157Z,17.20
2022-12-26T15:19:36.633Z,18.50
2022-12-26T15:22:59.962Z,19.35
2022-12-26T15:26:05.367Z,22.65
2022-12-26T15:29:07.930Z,24.80
2022-12-26T15:31:52.568Z,22.45
2022-12-26T15:34:43.691Z,20.70
2022-12-26T15:37:41.275Z,20.20
2022-12-26T15:40:17.393Z,20.50
2022-12-26T15:43:16.751Z,20.60
2022-12-26T15:46:04.962Z,18.98
2022-12-26T15:48:55.260Z,19.30
2022-12-26T15:51:55.786Z,16.07
2022-12-26T15:54:42.791Z,16.07
2022-12-26T15:57:18.927Z,19.50
2022-12-26T16:00:13.474Z,17.17
2022-12-26T16:03:06.678Z,16.97
2022-12-26T16:05:59.379Z,17.65
2022-12-26T16:08:47.369Z,17.12
2022-12-26T16:11:23.099Z,17.15
2022-12-26T16:13:59.312Z,17.85
2022-12-26T16:16:37.575Z,18.40
2022-12-26T16:19:25.637Z,15.43
2022-12-26T16:22:19.119Z,15.68
2022-12-26T16:24:50.533Z,16.45
2022-12-26T16:27:23.355Z,17.67
2022-12-26T16:30:09.940Z,17.65
2022-12-26T16:32:40.230Z,20.20
2022-12-26T16:35:28.481Z,28.17
2022-12-26T16:37:59.343Z,23.90
2022-12-26T16:40:36.922Z,23.98
2022-12-26T16:45:38.005Z,25.27
2022-12-26T16:48:08.491Z,29.60
2022-12-26T16:50:47.837Z,28.85
2022-12-26T16:53:25.986Z,28.23
2022-12-26T16:56:14.639Z,27.73
2022-12-26T16:58:42.210Z,27.15
2022-12-26T17:01:20.182Z,25.75
2022-12-26T17:03:56.021Z,25.37
2022-12-26T17:06:32.193Z,24.95
2022-12-26T17:09:10.607Z,39.10
2022-12-26T17:11:54.866Z,30.23
2022-12-26T17:14:40.323Z,27.80
2022-12-26T17:17:25.493Z,27.60
2022-12-26T17:19:57.558Z,27.15
2022-12-26T17:22:34.086Z,30.95
2022-12-26T17:25:28.839Z,31.80
2022-12-26T17:28:17.448Z,30.82
2022-12-26T17:30:48.171Z,31.02
2022-12-26T17:33:20.823Z,32.00
2022-12-26T17:36:52.421Z,29.00
2022-12-26T17:38:29.998Z,28.77
2022-12-26T17:41:02.049Z,27.37
2022-12-26T17:43:37.129Z,27.07
2022-12-26T17:46:07.571Z,27.13
2022-12-26T17:48:35.473Z,38.15
2022-12-26T17:51:07.294Z,28.12
2022-12-26T17:53:45.569Z,26.17
2022-12-26T17:56:21.378Z,24.27
2022-12-26T17:58:50.064Z,24.50
2022-12-26T18:01:21.393Z,24.90
2022-12-26T18:03:48.418Z,26.57
2022-12-26T18:06:17.528Z,27.32
2022-12-26T18:08:45.711Z,27.58
2022-12-26T18:11:15.011Z,27.93
2022-12-26T18:13:43.741Z,26.73
2022-12-26T18:16:17.255Z,26.25
2022-12-26T18:18:46.858Z,27.22
2022-12-26T18:21:15.982Z,28.42
2022-12-26T18:23:44.080Z,27.75
2022-12-26T18:26:20.476Z,24.02
2022-12-26T18:28:53.942Z,24.37
2022-12-26T18:31:24.642Z,24.02
2022-12-26T18:33:52.421Z,23.67
2022-12-26T18:36:22.803Z,22.82
2022-12-26T18:38:50.955Z,22.98
2022-12-26T18:41:20.215Z,19.57
2022-12-26T18:43:48.361Z,20.77
2022-12-26T18:46:19.681Z,32.13
2022-12-26T18:48:48.405Z,22.60
2022-12-26T18:51:16.452Z,25.82
2022-12-26T18:53:44.291Z,21.62
2022-12-26T18:56:17.764Z,22.65
2022-12-26T18:58:49.148Z,18.75
2022-12-26T19:01:18.651Z,33.92
2022-12-26T19:03:47.575Z,23.18
2022-12-26T19:06:25.682Z,24.85
2022-12-26T19:08:53.639Z,26.25
2022-12-26T19:11:21.625Z,23.30
2022-12-26T19:13:51.360Z,23.32
2022-12-26T19:16:19.720Z,23.65
2022-12-26T19:18:47.494Z,20.92
2022-12-26T19:21:18.679Z,21.12
2022-12-26T19:23:47.435Z,21.37
2022-12-26T19:26:17.882Z,23.42
2022-12-26T19:28:52.143Z,23.02
2022-12-26T19:31:21.134Z,21.77
2022-12-26T19:33:49.183Z,23.07
2022-12-26T19:36:17.127Z,22.67
2022-12-26T19:38:44.855Z,21.95
2022-12-26T19:41:14.203Z,21.50
2022-12-26T19:43:42.782Z,19.80
2022-12-26T19:46:17.432Z,21.75
2022-12-26T19:48:45.317Z,20.52
2022-12-26T19:51:15.826Z,21.40
2022-12-26T19:53:45.708Z,21.25
2022-12-26T19:56:23.561Z,23.50
2022-12-26T19:58:56.477Z,23.67
2022-12-26T20:01:27.176Z,23.80
2022-12-26T20:03:58.861Z,25.40
2022-12-26T20:06:30.397Z,25.55
2022-12-26T20:09:00.969Z,25.10
2022-12-26T20:11:32.617Z,25.72
2022-12-26T20:14:02.087Z,26.75
2022-12-26T20:17:03.982Z,25.10
2022-12-26T20:18:59.636Z,23.67
2022-12-26T20:21:27.259Z,23.15
2022-12-26T20:23:59.056Z,22.62
2022-12-26T20:26:30.068Z,20.68
2022-12-26T20:29:02.980Z,20.17
2022-12-26T20:31:32.952Z,34.35
2022-12-26T20:34:02.973Z,22.02
2022-12-26T20:36:34.928Z,22.67
2022-12-26T20:39:07.461Z,22.00
2022-12-26T20:41:35.426Z,19.80
2022-12-26T20:44:03.580Z,25.97
2022-12-26T20:46:33.309Z,22.80
2022-12-26T20:49:03.967Z,31.15
2022-12-26T20:51:37.730Z,26.25
2022-12-26T20:54:06.070Z,24.67
2022-12-26T20:56:35.212Z,22.52
2022-12-26T20:59:04.487Z,28.20
2022-12-26T21:01:32.890Z,33.95
2022-12-26T21:04:01.976Z,27.82
2022-12-26T21:06:34.305Z,28.15
2022-12-26T21:09:03.907Z,26.80
2022-12-26T21:11:35.756Z,26.10
2022-12-26T21:14:10.899Z,25.43
2022-12-26T21:19:15.073Z,30.10
2022-12-26T21:21:43.448Z,34.38
2022-12-26T21:24:22.326Z,28.17
2022-12-26T21:26:56.661Z,24.77
2022-12-26T21:29:29.410Z,25.75
2022-12-26T21:31:58.413Z,64.72
2022-12-26T21:34:29.576Z,38.92
2022-12-26T21:37:16.582Z,26.05
2022-12-26T21:39:44.529Z,23.42
2022-12-26T21:42:12.361Z,20.80
2022-12-26T21:44:40.178Z,20.55
2022-12-26T21:47:08.483Z,20.62
2022-12-26T21:49:37.179Z,19.20
2022-12-26T21:52:07.020Z,19.32
2022-12-26T21:55:02.531Z,18.55
2022-12-26T22:00:03.898Z,21.00
2022-12-26T22:02:56.930Z,20.70
2022-12-26T22:05:27.692Z,19.45
2022-12-26T22:07:59.282Z,18.00
2022-12-26T22:10:50.157Z,18.55
2022-12-26T22:13:21.051Z,19.62
2022-12-26T22:16:06.455Z,18.60
2022-12-26T22:21:16.849Z,16.52
2022-12-26T22:23:46.041Z,18.37
2022-12-26T22:26:14.945Z,15.85
2022-12-26T22:28:44.236Z,15.93
2022-12-26T22:31:23.381Z,15.43
2022-12-26T22:34:01.045Z,17.10
2022-12-26T22:36:30.402Z,18.50
2022-12-26T22:38:59.324Z,19.17
2022-12-26T22:41:28.325Z,19.35
2022-12-26T22:43:56.986Z,22.35
2022-12-26T22:46:25.061Z,30.85
2022-12-26T22:48:53.302Z,32.83
2022-12-26T22:51:24.901Z,33.05
2022-12-26T22:53:58.508Z,28.87
2022-12-26T22:56:27.609Z,26.87
2022-12-26T22:58:59.940Z,26.68
2022-12-26T23:01:28.253Z,31.57
2022-12-26T23:03:56.083Z,30.48
2022-12-26T23:06:28.234Z,31.45
2022-12-26T23:08:59.582Z,29.07
2022-12-26T23:11:34.960Z,26.55
2022-12-26T23:14:04.753Z,26.62
2022-12-26T23:16:43.891Z,23.95
2022-12-26T23:19:37.603Z,23.87
2022-12-26T23:22:05.888Z,20.68
2022-12-26T23:24:33.820Z,19.52
2022-12-26T23:27:25.786Z,18.23
2022-12-26T23:30:13.575Z,19.45
2022-12-26T23:32:43.791Z,17.98
2022-12-26T23:35:12.609Z,17.07
2022-12-26T23:37:42.378Z,22.05
2022-12-26T23:40:12.840Z,18.95
2022-12-26T23:42:41.318Z,17.98
2022-12-26T23:45:11.712Z,15.10
2022-12-26T23:47:43.439Z,13.98
2022-12-26T23:50:13.992Z,13.30
2022-12-26T23:52:42.596Z,12.53
2022-12-26T23:55:10.883Z,14.58
2022-12-26T23:57:38.875Z,13.65
